This is the latest recevied weather packets stored in our database for station/object HB9CYX-13. If no packets are shown the sender has not sent any weather packets the latest 10 day(s).
| Time | Temp. | Humidity | Pressure | Rain* | Wind** | Luminosity | Snow |
|---|---|---|---|---|---|---|---|
| 1777804359 | 22.22° C | 43% | 1014.8 hPa | 0 mm | - | - | - |
| 1777803622 | 21.11° C | 45% | 1015.3 hPa | 0 mm | - | - | - |
| 1777802885 | 20.56° C | 45% | 1015.8 hPa | 0 mm | - | - | - |
| 1777802148 | 20.56° C | 46% | 1015.9 hPa | 0 mm | - | - | - |
| 1777800553 | 20.56° C | 45% | 1016.3 hPa | 0 mm | - | - | - |
| 1777799817 | 21.11° C | 45% | 1016.2 hPa | 0 mm | - | - | - |
| 1777799080 | 20.56° C | 43% | 1016.5 hPa | 0 mm | - | - | - |
| 1777798343 | 22.78° C | 42% | 1016.1 hPa | 0 mm | - | - | - |
| 1777797607 | 22.22° C | 45% | 1016.3 hPa | 0 mm | - | - | - |
| 1777796865 | 20.56° C | 48% | 1016.7 hPa | 0 mm | - | - | - |
| 1777796128 | 21.11° C | 47% | 1016.7 hPa | 0 mm | - | - | - |
| 1777795392 | 21.11° C | 47% | 1016.9 hPa | 0 mm | - | - | - |
| 1777794655 | 18.33° C | 50% | 1017.4 hPa | 0 mm | - | - | - |
| 1777790525 | 16.11° C | 61% | 1018 hPa | 0 mm | - | - | - |
| 1777789787 | 15.56° C | 63% | 1018 hPa | 0 mm | - | - | - |
| 1777789049 | 13.33° C | 71% | 1018.2 hPa | 0 mm | - | - | - |
| 1777788311 | 12.78° C | 72% | 1018.3 hPa | 0 mm | - | - | - |
| 1777787573 | 12.78° C | 74% | 1018.4 hPa | 0 mm | - | - | - |
| 1777786835 | 12.22° C | 75% | 1018.4 hPa | 0 mm | - | - | - |
| 1777786097 | 12.22° C | 75% | 1018.3 hPa | 0 mm | - | - | - |
| 1777785359 | 11.67° C | 76% | 1018.3 hPa | 0 mm | - | - | - |
| 1777784621 | 11.67° C | 78% | 1018.2 hPa | 0 mm | - | - | - |
| 1777783884 | 11.11° C | 79% | 1018.4 hPa | 0 mm | - | - | - |
| 1777783145 | 11.11° C | 80% | 1018.4 hPa | 0 mm | - | - | - |
| 1777782407 | 11.11° C | 80% | 1018.4 hPa | 0 mm | - | - | - |
* Rain latest hour (hover to see other rain measurements)
** Current wind speed in m/s (hover to see current wind gust speed)